createdAt,value
2017-04-09T00:01:48.803Z,8.58
2017-04-09T00:06:45.146Z,8.56
2017-04-09T00:11:41.391Z,8.52
2017-04-09T00:16:37.657Z,8.44
2017-04-09T00:21:34.041Z,8.33
2017-04-09T00:26:31.530Z,8.31
2017-04-09T00:31:27.960Z,8.34
2017-04-09T00:36:25.233Z,8.23
2017-04-09T00:41:21.616Z,8.27
2017-04-09T00:46:18.115Z,8.23
2017-04-09T00:51:15.608Z,8.20
2017-04-09T00:56:12.167Z,8.09
2017-04-09T01:01:08.523Z,8.03
2017-04-09T01:06:05.072Z,8.12
2017-04-09T01:11:01.543Z,8.03
2017-04-09T01:15:57.983Z,7.75
2017-04-09T01:20:54.341Z,7.85
2017-04-09T01:25:50.957Z,7.82
2017-04-09T01:30:47.679Z,7.66
2017-04-09T01:35:45.365Z,7.39
2017-04-09T01:40:41.381Z,7.20
2017-04-09T01:45:37.738Z,7.18
2017-04-09T01:50:33.952Z,6.97
2017-04-09T01:55:30.253Z,7.13
2017-04-09T02:00:26.565Z,7.14
2017-04-09T02:05:22.672Z,7.20
2017-04-09T02:10:19.464Z,7.29
2017-04-09T02:15:16.063Z,7.18
2017-04-09T02:20:12.469Z,7.38
2017-04-09T02:25:08.835Z,7.40
2017-04-09T02:30:05.224Z,7.33
2017-04-09T02:35:01.710Z,7.35
2017-04-09T02:39:58.315Z,7.14
2017-04-09T02:44:54.588Z,7.07
2017-04-09T02:49:51.782Z,6.67
2017-04-09T02:54:48.164Z,6.59
2017-04-09T02:59:44.452Z,6.54
2017-04-09T03:04:40.691Z,6.69
2017-04-09T03:09:39.479Z,6.85
2017-04-09T03:14:35.312Z,6.60
2017-04-09T03:19:31.485Z,6.64
2017-04-09T03:24:27.367Z,6.69
2017-04-09T03:29:23.900Z,6.62
2017-04-09T03:34:20.248Z,6.64
2017-04-09T03:39:16.650Z,6.60
2017-04-09T03:44:12.897Z,6.49
2017-04-09T03:49:09.168Z,6.28
2017-04-09T03:54:05.911Z,6.56
2017-04-09T03:59:03.013Z,6.35
2017-04-09T04:03:59.393Z,6.38
2017-04-09T04:08:56.148Z,6.30
2017-04-09T04:13:52.546Z,6.36
2017-04-09T04:18:48.986Z,6.31
2017-04-09T04:23:45.908Z,6.42
2017-04-09T04:28:42.541Z,6.24
2017-04-09T04:33:39.066Z,6.36
2017-04-09T04:38:35.273Z,6.36
2017-04-09T04:43:31.516Z,6.49
2017-04-09T04:48:27.931Z,6.49
2017-04-09T04:53:24.280Z,6.54
2017-04-09T04:58:20.852Z,6.62
2017-04-09T05:03:17.153Z,6.69
2017-04-09T05:08:13.620Z,6.64
2017-04-09T05:13:10.209Z,6.60
2017-04-09T05:18:06.512Z,6.66
2017-04-09T05:23:03.032Z,6.59
2017-04-09T05:27:59.492Z,6.52
2017-04-09T05:32:55.634Z,6.74
2017-04-09T05:37:52.170Z,6.87
2017-04-09T05:42:48.561Z,6.64
2017-04-09T05:47:45.216Z,6.62
2017-04-09T05:52:41.595Z,6.70
2017-04-09T05:57:38.114Z,6.97
2017-04-09T06:02:34.711Z,6.89
2017-04-09T06:07:32.360Z,7.15
2017-04-09T06:12:29.249Z,7.33
2017-04-09T06:17:25.772Z,7.67
2017-04-09T06:22:22.427Z,8.08
2017-04-09T06:27:18.922Z,8.18
2017-04-09T06:32:15.335Z,8.15
2017-04-09T06:37:12.213Z,8.38
2017-04-09T06:42:08.996Z,8.66
2017-04-09T06:47:05.535Z,8.46
2017-04-09T06:52:02.767Z,8.89
2017-04-09T06:56:59.394Z,9.02
2017-04-09T07:01:55.990Z,9.04
2017-04-09T07:06:52.465Z,9.06
2017-04-09T07:11:49.111Z,9.29
2017-04-09T07:16:45.829Z,9.36
2017-04-09T07:21:42.294Z,9.50
2017-04-09T07:26:38.819Z,9.65
2017-04-09T07:31:35.891Z,9.99
2017-04-09T07:36:32.153Z,10.10
2017-04-09T07:41:28.667Z,10.37
2017-04-09T07:46:25.662Z,10.60
2017-04-09T07:51:22.295Z,10.79
2017-04-09T07:56:19.317Z,11.22
2017-04-09T08:01:16.040Z,11.81
2017-04-09T08:06:13.133Z,12.35
2017-04-09T08:11:09.759Z,12.43
2017-04-09T08:16:07.023Z,13.00
2017-04-09T08:21:04.230Z,13.77
2017-04-09T08:26:01.247Z,14.35
2017-04-09T08:30:58.401Z,13.89
2017-04-09T08:35:55.384Z,13.42
2017-04-09T08:40:51.936Z,13.56
2017-04-09T08:45:48.565Z,13.67
2017-04-09T08:50:45.049Z,13.53
2017-04-09T08:55:41.367Z,13.79
2017-04-09T09:00:37.792Z,14.11
2017-04-09T09:05:34.297Z,14.25
2017-04-09T09:10:31.549Z,14.37
2017-04-09T09:15:28.085Z,13.97
2017-04-09T09:20:24.273Z,14.10
2017-04-09T09:25:21.076Z,14.20
2017-04-09T09:30:17.568Z,14.50
2017-04-09T09:35:14.423Z,15.10
2017-04-09T09:40:11.241Z,15.35
2017-04-09T09:45:08.350Z,15.39
2017-04-09T09:50:05.364Z,15.62
2017-04-09T09:55:01.993Z,15.88
2017-04-09T09:59:58.605Z,15.73
2017-04-09T10:04:55.294Z,16.21
2017-04-09T10:09:52.189Z,16.23
2017-04-09T10:14:50.451Z,16.74
2017-04-09T10:19:47.823Z,17.39
2017-04-09T10:24:46.205Z,18.23
2017-04-09T10:29:44.735Z,17.46
2017-04-09T10:34:41.914Z,17.80
2017-04-09T10:39:39.622Z,18.33
2017-04-09T10:44:36.952Z,18.55
2017-04-09T10:49:34.501Z,19.34
2017-04-09T10:54:31.378Z,19.27
2017-04-09T10:59:28.444Z,19.86
2017-04-09T11:04:25.846Z,20.32
2017-04-09T11:09:22.839Z,20.02
2017-04-09T11:14:19.919Z,20.19
2017-04-09T11:19:17.148Z,20.36
2017-04-09T11:24:14.375Z,20.81
2017-04-09T11:29:11.302Z,20.29
2017-04-09T11:34:08.285Z,19.91
2017-04-09T11:39:05.086Z,20.24
2017-04-09T11:44:02.576Z,21.25
2017-04-09T11:48:59.539Z,21.22
2017-04-09T11:53:56.297Z,20.65
2017-04-09T11:58:53.124Z,21.20
2017-04-09T12:03:50.330Z,20.97
2017-04-09T12:08:54.943Z,20.78
2017-04-09T12:13:48.967Z,21.57
2017-04-09T12:18:45.416Z,20.99
2017-04-09T12:23:41.127Z,20.34
2017-04-09T12:28:38.082Z,20.66
2017-04-09T12:33:35.437Z,21.35
2017-04-09T12:38:31.352Z,20.81
2017-04-09T12:43:26.905Z,20.67
2017-04-09T12:48:23.431Z,20.48
2017-04-09T12:53:19.368Z,20.95
2017-04-09T12:58:16.491Z,20.56
2017-04-09T13:03:12.314Z,20.80
2017-04-09T13:08:08.652Z,20.47
2017-04-09T13:13:06.143Z,20.90
2017-04-09T13:18:02.916Z,21.20
2017-04-09T13:23:00.265Z,21.42
2017-04-09T13:27:56.848Z,21.22
2017-04-09T13:32:53.894Z,21.25
2017-04-09T13:37:49.606Z,20.88
2017-04-09T13:42:45.568Z,20.10
2017-04-09T13:47:41.822Z,20.55
2017-04-09T13:52:39.079Z,20.95
2017-04-09T13:57:35.832Z,21.69
2017-04-09T14:02:32.631Z,21.51
2017-04-09T14:07:29.747Z,21.75
2017-04-09T14:12:26.384Z,21.24
2017-04-09T14:17:23.957Z,21.48
2017-04-09T14:22:20.669Z,22.10
2017-04-09T14:27:17.134Z,22.17
2017-04-09T14:32:13.870Z,22.26
2017-04-09T14:37:12.169Z,22.55
2017-04-09T14:42:08.878Z,22.26
2017-04-09T14:47:06.230Z,21.95
2017-04-09T14:52:03.175Z,21.91
2017-04-09T14:56:59.638Z,21.80
2017-04-09T15:01:58.037Z,21.58
2017-04-09T15:06:53.605Z,21.25
2017-04-09T15:11:49.450Z,21.05
2017-04-09T15:16:45.969Z,20.72
2017-04-09T15:21:42.001Z,20.70
2017-04-09T15:26:38.564Z,20.81
2017-04-09T15:31:35.236Z,20.82
2017-04-09T15:36:31.682Z,20.82
2017-04-09T15:41:28.081Z,20.84
2017-04-09T15:46:24.498Z,20.75
2017-04-09T15:51:21.300Z,20.80
2017-04-09T15:56:17.510Z,20.77
2017-04-09T16:01:14.048Z,20.70
2017-04-09T16:06:10.378Z,20.52
2017-04-09T16:11:07.266Z,20.48
2017-04-09T16:16:03.931Z,20.44
2017-04-09T16:21:00.391Z,20.43
2017-04-09T16:25:58.604Z,20.40
2017-04-09T16:30:54.860Z,20.41
2017-04-09T16:35:51.523Z,20.28
2017-04-09T16:40:48.187Z,20.29
2017-04-09T16:45:44.648Z,20.26
2017-04-09T16:50:42.590Z,20.25
2017-04-09T16:55:38.578Z,20.02
2017-04-09T17:00:35.038Z,20.00
2017-04-09T17:05:31.444Z,20.11
2017-04-09T17:10:27.777Z,20.04
2017-04-09T17:15:24.324Z,20.02
2017-04-09T17:20:23.242Z,19.76
2017-04-09T17:25:19.104Z,19.73
2017-04-09T17:30:15.738Z,19.63
2017-04-09T17:35:11.996Z,19.47
2017-04-09T17:40:09.039Z,19.36
2017-04-09T17:50:07.249Z,18.99
2017-04-09T17:55:03.391Z,18.71
2017-04-09T17:59:59.818Z,18.47
2017-04-09T18:04:56.378Z,18.29
2017-04-09T18:09:52.724Z,18.15
2017-04-09T18:14:48.962Z,18.00
2017-04-09T18:19:45.265Z,17.79
2017-04-09T18:24:41.706Z,17.59
2017-04-09T18:29:38.331Z,17.42
2017-04-09T18:34:34.768Z,17.14
2017-04-09T18:39:31.070Z,16.99
2017-04-09T18:44:27.315Z,16.89
2017-04-09T18:49:23.873Z,16.64
2017-04-09T18:54:20.387Z,16.61
2017-04-09T18:59:17.540Z,16.64
2017-04-09T19:04:14.463Z,16.71
2017-04-09T19:09:11.197Z,16.75
2017-04-09T19:14:07.675Z,16.68
2017-04-09T19:19:04.488Z,16.56
2017-04-09T19:24:02.126Z,16.50
2017-04-09T19:28:58.270Z,16.28
2017-04-09T19:33:54.572Z,16.10
2017-04-09T19:38:51.897Z,16.00
2017-04-09T19:43:49.283Z,15.88
2017-04-09T19:48:46.394Z,15.75
2017-04-09T19:53:42.587Z,15.83
2017-04-09T19:58:38.750Z,15.76
2017-04-09T20:03:35.449Z,15.75
2017-04-09T20:08:32.007Z,15.40
2017-04-09T20:13:28.790Z,15.31
2017-04-09T20:18:25.365Z,15.17
2017-04-09T20:23:21.785Z,15.15
2017-04-09T20:28:18.357Z,15.04
2017-04-09T20:33:14.881Z,14.91
2017-04-09T20:38:10.927Z,14.85
2017-04-09T20:43:07.831Z,14.84
2017-04-09T20:48:04.301Z,14.78
2017-04-09T20:53:00.767Z,14.72
2017-04-09T20:57:57.311Z,14.96
2017-04-09T21:02:54.406Z,14.85
2017-04-09T21:07:51.211Z,14.88
2017-04-09T21:12:47.692Z,14.88
2017-04-09T21:17:44.421Z,15.00
2017-04-09T21:22:42.261Z,15.09
2017-04-09T21:27:38.606Z,14.96
2017-04-09T21:32:35.171Z,14.66
2017-04-09T21:37:31.979Z,14.50
2017-04-09T21:42:29.689Z,14.50
2017-04-09T21:47:25.711Z,14.35
2017-04-09T21:52:22.038Z,14.45
2017-04-09T21:57:18.953Z,14.58
2017-04-09T22:02:15.500Z,14.41
2017-04-09T22:07:12.109Z,14.20
2017-04-09T22:12:09.487Z,14.08
2017-04-09T22:17:06.489Z,14.00
2017-04-09T22:22:05.542Z,13.85
2017-04-09T22:27:01.386Z,13.87
2017-04-09T22:31:57.645Z,14.05
2017-04-09T22:36:54.321Z,14.10
2017-04-09T22:41:51.056Z,14.17
2017-04-09T22:46:47.468Z,14.07
2017-04-09T22:51:43.881Z,14.07
2017-04-09T22:56:40.064Z,14.04
2017-04-09T23:01:36.866Z,13.89
2017-04-09T23:06:33.307Z,13.72
2017-04-09T23:11:30.991Z,13.59
2017-04-09T23:16:27.308Z,13.52
2017-04-09T23:21:23.874Z,13.63
2017-04-09T23:26:21.095Z,13.42
2017-04-09T23:31:17.607Z,13.31
2017-04-09T23:36:14.036Z,13.20
2017-04-09T23:41:11.322Z,13.18
2017-04-09T23:46:07.526Z,13.03
2017-04-09T23:51:04.379Z,13.04
2017-04-09T23:56:00.845Z,12.94
